createdAt,value
2022-09-14T00:00:32.226Z,82.35
2022-09-14T00:03:59.740Z,82.27
2022-09-14T00:07:01.436Z,82.35
2022-09-14T00:10:03.593Z,82.41
2022-09-14T00:13:25.215Z,82.49
2022-09-14T00:16:32.523Z,82.44
2022-09-14T00:19:34.486Z,82.50
2022-09-14T00:22:36.115Z,82.57
2022-09-14T00:25:37.801Z,82.63
2022-09-14T00:28:45.469Z,82.79
2022-09-14T00:31:47.231Z,82.99
2022-09-14T00:34:49.042Z,82.90
2022-09-14T00:37:51.534Z,83.07
2022-09-14T00:40:58.355Z,83.24
2022-09-14T00:44:05.992Z,83.68
2022-09-14T00:47:07.960Z,83.83
2022-09-14T00:50:10.048Z,83.87
2022-09-14T00:53:11.855Z,84.03
2022-09-14T00:56:14.361Z,84.11
2022-09-14T00:59:18.384Z,84.45
2022-09-14T01:02:22.623Z,84.65
2022-09-14T01:05:44.780Z,84.73
2022-09-14T01:09:11.160Z,84.93
2022-09-14T01:12:20.509Z,84.98
2022-09-14T01:15:34.416Z,84.82
2022-09-14T01:18:39.534Z,84.69
2022-09-14T01:21:42.488Z,84.88
2022-09-14T01:24:56.864Z,85.20
2022-09-14T01:28:01.752Z,85.08
2022-09-14T01:31:09.368Z,85.10
2022-09-14T01:34:15.953Z,85.08
2022-09-14T01:37:23.138Z,85.21
2022-09-14T01:40:30.215Z,85.41
2022-09-14T01:43:46.414Z,85.69
2022-09-14T01:46:54.038Z,85.71
2022-09-14T01:50:00.381Z,85.84
2022-09-14T01:53:11.061Z,86.03
2022-09-14T01:56:32.201Z,86.20
2022-09-14T01:59:37.828Z,86.15
2022-09-14T02:02:44.475Z,86.11
2022-09-14T02:06:34.025Z,86.23
2022-09-14T02:09:35.913Z,86.32
2022-09-14T02:12:38.039Z,86.12
2022-09-14T02:15:39.851Z,86.19
2022-09-14T02:18:43.635Z,86.33
2022-09-14T02:21:45.891Z,86.55
2022-09-14T02:24:48.431Z,86.49
2022-09-14T02:27:50.622Z,86.37
2022-09-14T02:31:18.007Z,86.55
2022-09-14T02:34:43.169Z,86.87
2022-09-14T02:37:47.653Z,87.05
2022-09-14T02:40:57.288Z,87.35
2022-09-14T02:44:17.165Z,86.90
2022-09-14T02:47:45.995Z,86.87
2022-09-14T02:51:06.706Z,87.07
2022-09-14T02:54:15.665Z,86.95
2022-09-14T02:57:17.655Z,87.32
2022-09-14T03:00:19.596Z,87.52
2022-09-14T03:03:21.875Z,87.39
2022-09-14T03:06:24.275Z,87.36
2022-09-14T03:09:26.575Z,87.55
2022-09-14T03:12:28.351Z,87.59
2022-09-14T03:15:30.326Z,87.58
2022-09-14T03:18:33.204Z,87.95
2022-09-14T03:21:35.066Z,87.87
2022-09-14T03:24:37.425Z,87.94
2022-09-14T03:27:39.875Z,88.02
2022-09-14T03:30:41.572Z,88.01
2022-09-14T03:33:43.497Z,88.23
2022-09-14T03:36:45.174Z,88.24
2022-09-14T03:39:46.849Z,88.34
2022-09-14T03:42:50.667Z,88.48
2022-09-14T03:45:52.345Z,88.50
2022-09-14T03:48:55.523Z,88.63
2022-09-14T03:51:59.762Z,88.61
2022-09-14T03:55:02.490Z,88.46
2022-09-14T03:58:04.119Z,88.54
2022-09-14T04:01:07.741Z,88.70
2022-09-14T04:04:09.543Z,88.73
2022-09-14T04:07:11.200Z,88.65
2022-09-14T04:10:12.995Z,88.57
2022-09-14T04:13:14.879Z,88.64
2022-09-14T04:16:18.321Z,88.81
2022-09-14T04:19:19.996Z,88.91
2022-09-14T04:22:21.777Z,89.48
2022-09-14T04:25:23.593Z,89.65
2022-09-14T04:28:25.258Z,89.63
2022-09-14T04:31:27.292Z,89.90
2022-09-14T04:34:29.147Z,89.70
2022-09-14T04:37:32.575Z,89.70
2022-09-14T04:40:34.308Z,90.33
2022-09-14T04:43:36.219Z,90.54
2022-09-14T04:46:45.811Z,90.39
2022-09-14T04:49:48.540Z,90.55
2022-09-14T04:52:50.288Z,90.32
2022-09-14T04:55:52.026Z,90.20
2022-09-14T04:58:56.489Z,90.47
2022-09-14T05:01:58.292Z,90.52
2022-09-14T05:04:59.986Z,90.63
2022-09-14T05:08:02.060Z,90.66
2022-09-14T05:11:04.010Z,90.74
2022-09-14T05:14:06.031Z,90.68
2022-09-14T05:17:08.160Z,90.84
2022-09-14T05:20:09.976Z,90.95
2022-09-14T05:23:12.257Z,90.87
2022-09-14T05:26:14.654Z,90.52
2022-09-14T05:29:18.390Z,90.40
2022-09-14T05:32:20.136Z,90.40
2022-09-14T05:35:21.880Z,90.78
2022-09-14T05:38:23.576Z,90.68
2022-09-14T05:41:25.375Z,91.14
2022-09-14T05:44:27.054Z,90.59
2022-09-14T05:47:34.804Z,90.45
2022-09-14T05:50:38.946Z,90.34
2022-09-14T05:53:41.000Z,90.33
2022-09-14T05:56:42.644Z,90.91
2022-09-14T05:59:44.314Z,91.15
2022-09-14T06:02:50.231Z,90.55
2022-09-14T06:05:54.895Z,90.23
2022-09-14T06:08:57.014Z,89.63
2022-09-14T06:11:59.010Z,89.92
2022-09-14T06:15:00.760Z,90.15
2022-09-14T06:18:02.509Z,91.11
2022-09-14T06:21:05.173Z,89.93
2022-09-14T06:24:06.892Z,89.23
2022-09-14T06:27:09.421Z,89.27
2022-09-14T06:30:11.674Z,89.62
2022-09-14T06:33:13.681Z,89.30
2022-09-14T06:36:19.770Z,87.88
2022-09-14T06:39:21.425Z,87.42
2022-09-14T06:42:23.315Z,86.76
2022-09-14T06:45:25.335Z,86.47
2022-09-14T06:48:28.975Z,86.36
2022-09-14T06:51:39.096Z,86.32
2022-09-14T06:54:41.365Z,87.06
2022-09-14T06:57:43.277Z,86.68
2022-09-14T07:00:44.933Z,85.89
2022-09-14T07:03:47.903Z,85.93
2022-09-14T07:06:50.165Z,84.77
2022-09-14T07:09:51.953Z,83.54
2022-09-14T07:12:56.424Z,83.34
2022-09-14T07:15:58.447Z,83.00
2022-09-14T07:19:02.045Z,82.66
2022-09-14T07:22:03.739Z,81.42
2022-09-14T07:25:05.991Z,81.78
2022-09-14T07:28:08.013Z,81.56
2022-09-14T07:31:21.898Z,81.63
2022-09-14T07:34:24.994Z,81.63
2022-09-14T07:37:26.737Z,82.26
2022-09-14T07:40:28.444Z,82.03
2022-09-14T07:43:30.657Z,81.61
2022-09-14T07:46:38.433Z,80.75
2022-09-14T07:49:40.308Z,81.27
2022-09-14T07:52:41.990Z,81.50
2022-09-14T07:55:43.816Z,80.87
2022-09-14T07:58:45.757Z,80.77
2022-09-14T08:01:49.428Z,79.49
2022-09-14T08:04:53.946Z,78.81
2022-09-14T08:07:56.330Z,78.51
2022-09-14T08:11:12.199Z,79.04
2022-09-14T08:14:14.252Z,79.98
2022-09-14T08:17:15.914Z,79.97
2022-09-14T08:20:17.973Z,79.19
2022-09-14T08:23:19.667Z,78.91
2022-09-14T08:26:23.715Z,78.99
2022-09-14T08:29:26.122Z,78.54
2022-09-14T08:32:28.125Z,78.71
2022-09-14T08:35:53.946Z,79.09
2022-09-14T08:38:51.704Z,78.81
2022-09-14T08:41:59.089Z,78.59
2022-09-14T08:45:08.922Z,78.53
2022-09-14T08:48:20.742Z,78.49
2022-09-14T08:51:22.680Z,78.22
2022-09-14T08:54:24.547Z,78.25
2022-09-14T08:57:40.704Z,78.62
2022-09-14T09:01:24.262Z,77.94
2022-09-14T09:04:44.429Z,77.63
2022-09-14T09:07:56.880Z,77.51
2022-09-14T09:11:01.693Z,77.54
2022-09-14T09:14:17.743Z,77.06
2022-09-14T09:17:25.454Z,76.92
2022-09-14T09:20:33.728Z,76.70
2022-09-14T09:23:36.123Z,75.78
2022-09-14T09:26:39.498Z,75.94
2022-09-14T09:29:41.261Z,75.36
2022-09-14T09:32:43.407Z,74.86
2022-09-14T09:35:45.186Z,75.63
2022-09-14T09:38:47.571Z,75.39
2022-09-14T09:42:14.090Z,71.65
2022-09-14T09:45:15.946Z,72.21
2022-09-14T09:48:19.929Z,72.07
2022-09-14T09:51:24.778Z,72.84
2022-09-14T09:54:31.219Z,71.08
2022-09-14T09:57:35.845Z,71.13
2022-09-14T10:00:37.692Z,70.66
2022-09-14T10:03:40.671Z,70.21
2022-09-14T10:06:48.092Z,70.13
2022-09-14T10:10:06.235Z,69.10
2022-09-14T10:13:17.146Z,69.38
2022-09-14T10:16:20.673Z,66.86
2022-09-14T10:19:26.104Z,66.50
2022-09-14T10:22:35.722Z,64.17
2022-09-14T10:25:37.801Z,63.58
2022-09-14T10:28:40.889Z,63.51
2022-09-14T10:31:43.423Z,65.60
2022-09-14T10:34:45.877Z,65.74
2022-09-14T10:38:16.123Z,65.73
2022-09-14T10:41:36.759Z,66.03
2022-09-14T10:44:47.453Z,66.05
2022-09-14T10:48:00.413Z,66.88
2022-09-14T10:51:14.503Z,67.20
2022-09-14T10:54:58.389Z,67.60
2022-09-14T10:58:47.587Z,68.38
2022-09-14T11:01:55.707Z,68.95
2022-09-14T11:05:06.532Z,68.41
2022-09-14T11:08:26.331Z,68.58
2022-09-14T11:11:40.333Z,68.26
2022-09-14T11:14:51.696Z,68.11
2022-09-14T11:18:08.758Z,68.74
2022-09-14T11:21:21.267Z,68.54
2022-09-14T11:24:44.009Z,68.85
2022-09-14T11:27:58.484Z,69.70
2022-09-14T11:31:04.880Z,70.27
2022-09-14T11:34:16.777Z,70.17
2022-09-14T11:37:21.346Z,69.70
2022-09-14T11:40:31.457Z,70.23
2022-09-14T11:43:39.885Z,70.08
2022-09-14T11:47:04.257Z,69.90
2022-09-14T11:50:24.330Z,69.50
2022-09-14T11:53:26.361Z,69.99
2022-09-14T11:56:31.048Z,69.98
2022-09-14T11:59:41.877Z,70.51
2022-09-14T12:02:55.964Z,70.77
2022-09-14T12:06:29.652Z,71.06
2022-09-14T12:09:39.541Z,71.36
2022-09-14T12:12:46.662Z,71.21
2022-09-14T12:15:48.640Z,71.82
2022-09-14T12:18:55.879Z,72.27
2022-09-14T12:22:33.905Z,72.29
2022-09-14T12:25:37.974Z,72.47
2022-09-14T12:28:48.124Z,72.65
2022-09-14T12:31:56.387Z,73.22
2022-09-14T12:35:38.886Z,74.01
2022-09-14T12:38:43.393Z,74.54
2022-09-14T12:41:47.994Z,74.85
2022-09-14T12:44:49.774Z,75.31
2022-09-14T12:47:52.248Z,75.83
2022-09-14T12:50:54.855Z,76.30
2022-09-14T12:54:08.937Z,76.97
2022-09-14T12:57:24.502Z,77.79
2022-09-14T13:00:28.438Z,78.65
2022-09-14T13:03:52.904Z,79.40
2022-09-14T13:06:56.572Z,80.10
2022-09-14T13:10:00.220Z,80.69
2022-09-14T13:13:24.948Z,81.50
2022-09-14T13:16:47.471Z,81.47
2022-09-14T13:20:01.279Z,81.94
2022-09-14T13:23:03.534Z,82.35
2022-09-14T13:26:23.325Z,82.64
2022-09-14T13:29:27.144Z,82.78
2022-09-14T13:32:29.177Z,83.36
2022-09-14T13:35:55.690Z,83.40
2022-09-14T13:39:01.666Z,84.35
2022-09-14T13:42:04.060Z,84.92
2022-09-14T13:45:06.423Z,85.35
2022-09-14T13:48:10.784Z,85.54
2022-09-14T13:51:13.987Z,85.78
2022-09-14T13:54:26.048Z,86.17
2022-09-14T13:57:27.841Z,86.77
2022-09-14T14:00:29.581Z,87.31
2022-09-14T14:03:34.334Z,87.60
2022-09-14T14:06:38.033Z,87.83
2022-09-14T14:09:51.838Z,88.36
2022-09-14T14:12:54.120Z,88.41
2022-09-14T14:16:16.253Z,88.45
2022-09-14T14:19:31.149Z,88.53
2022-09-14T14:22:34.493Z,88.76
2022-09-14T14:26:09.938Z,88.81
2022-09-14T14:29:12.632Z,89.11
2022-09-14T14:32:14.434Z,89.10
2022-09-14T14:35:20.076Z,89.15
2022-09-14T14:38:23.759Z,89.31
2022-09-14T14:41:25.580Z,89.40
2022-09-14T14:44:29.154Z,89.33
2022-09-14T14:47:30.796Z,89.41
2022-09-14T14:50:34.159Z,89.57
2022-09-14T14:53:35.960Z,89.96
2022-09-14T14:56:38.629Z,90.13
2022-09-14T14:59:40.221Z,89.99
2022-09-14T15:02:42.760Z,90.18
2022-09-14T15:05:45.860Z,90.17
2022-09-14T15:08:47.852Z,90.15
2022-09-14T15:11:50.557Z,90.21
2022-09-14T15:14:52.177Z,90.30
2022-09-14T15:17:54.147Z,90.18
2022-09-14T15:20:56.011Z,90.31
2022-09-14T15:23:58.937Z,90.34
2022-09-14T15:27:00.683Z,90.57
2022-09-14T15:30:03.560Z,90.49
2022-09-14T15:33:05.401Z,90.71
2022-09-14T15:36:07.115Z,90.74
2022-09-14T15:39:11.897Z,90.78
2022-09-14T15:42:14.123Z,90.70
2022-09-14T15:45:15.957Z,90.85
2022-09-14T15:48:18.710Z,90.84
2022-09-14T15:51:20.364Z,90.86
2022-09-14T15:54:24.396Z,90.74
2022-09-14T15:57:27.492Z,90.93
2022-09-14T16:00:29.171Z,91.03
2022-09-14T16:03:31.360Z,91.07
2022-09-14T16:06:33.788Z,91.18
2022-09-14T16:09:37.437Z,91.28
2022-09-14T16:12:39.117Z,91.39
2022-09-14T16:15:41.492Z,91.52
2022-09-14T16:18:43.547Z,91.59
2022-09-14T16:21:45.335Z,91.65
2022-09-14T16:24:47.358Z,91.67
2022-09-14T16:27:49.108Z,91.89
2022-09-14T16:30:51.025Z,92.05
2022-09-14T16:33:55.626Z,91.99
2022-09-14T16:36:58.810Z,92.05
2022-09-14T16:40:00.906Z,92.07
2022-09-14T16:43:02.746Z,92.44
2022-09-14T16:46:05.587Z,92.37
2022-09-14T16:49:07.495Z,92.32
2022-09-14T16:52:09.193Z,92.32
2022-09-14T16:55:10.795Z,92.43
2022-09-14T16:58:12.580Z,92.62
2022-09-14T17:01:20.427Z,92.50
2022-09-14T17:04:42.174Z,92.73
2022-09-14T17:07:44.012Z,92.69
2022-09-14T17:10:47.167Z,93.05
2022-09-14T17:13:49.212Z,93.03
2022-09-14T17:16:51.066Z,93.15
2022-09-14T17:19:52.937Z,93.34
2022-09-14T17:22:54.636Z,93.50
2022-09-14T17:25:56.930Z,93.46
2022-09-14T17:28:59.424Z,93.60
2022-09-14T17:32:01.316Z,93.70
2022-09-14T17:35:03.870Z,93.86
2022-09-14T17:38:05.677Z,94.04
2022-09-14T17:41:15.402Z,94.30
2022-09-14T17:44:18.076Z,94.32
2022-09-14T17:47:19.970Z,94.66
2022-09-14T17:50:23.559Z,94.71
2022-09-14T17:53:25.434Z,95.01
2022-09-14T17:56:28.424Z,95.24
2022-09-14T17:59:30.252Z,95.41
2022-09-14T18:02:31.958Z,95.44
2022-09-14T18:05:33.803Z,95.60
2022-09-14T18:08:36.074Z,95.78
2022-09-14T18:11:38.085Z,95.83
2022-09-14T18:14:39.974Z,95.98
2022-09-14T18:17:43.707Z,96.09
2022-09-14T18:20:45.608Z,96.16
2022-09-14T18:23:51.648Z,96.18
2022-09-14T18:26:53.475Z,96.32
2022-09-14T18:29:55.366Z,96.31
2022-09-14T18:32:57.051Z,96.31
2022-09-14T18:35:58.808Z,96.41
2022-09-14T18:39:00.966Z,96.47
2022-09-14T18:42:03.902Z,96.50
2022-09-14T18:45:06.150Z,96.58
2022-09-14T18:48:07.776Z,96.82
2022-09-14T18:51:11.071Z,96.87
2022-09-14T18:54:13.509Z,96.84
2022-09-14T18:57:17.797Z,96.95
2022-09-14T19:00:19.591Z,97.07
2022-09-14T19:03:21.667Z,97.01
2022-09-14T19:06:24.336Z,97.39
2022-09-14T19:09:26.654Z,97.50
2022-09-14T19:12:28.826Z,97.50
2022-09-14T19:15:32.672Z,97.57
2022-09-14T19:18:35.329Z,97.59
2022-09-14T19:21:37.241Z,97.46
2022-09-14T19:24:39.014Z,97.70
2022-09-14T19:27:40.693Z,97.88
2022-09-14T19:30:42.661Z,97.98
2022-09-14T19:33:45.808Z,98.02
2022-09-14T19:36:47.645Z,98.20
2022-09-14T19:39:49.742Z,98.21
2022-09-14T19:42:51.985Z,98.30
2022-09-14T19:45:53.879Z,98.53
2022-09-14T19:48:55.853Z,98.49
2022-09-14T19:52:00.668Z,98.58
2022-09-14T19:55:02.379Z,98.56
2022-09-14T19:58:04.156Z,98.77
2022-09-14T20:01:06.441Z,98.91
2022-09-14T20:04:10.343Z,99.07
2022-09-14T20:07:11.950Z,99.14
2022-09-14T20:10:13.593Z,99.10
2022-09-14T20:13:15.712Z,99.07
2022-09-14T20:16:23.875Z,99.00
2022-09-14T20:19:27.832Z,99.24
2022-09-14T20:22:29.625Z,99.11
2022-09-14T20:25:31.767Z,99.32
2022-09-14T20:28:34.090Z,99.61
2022-09-14T20:31:35.791Z,99.82
2022-09-14T20:34:37.530Z,99.92
2022-09-14T20:37:39.664Z,99.92
2022-09-14T20:40:41.329Z,99.99
2022-09-14T20:43:46.246Z,100.00
2022-09-14T20:46:48.395Z,99.98
2022-09-14T20:49:50.668Z,100.00
2022-09-14T20:52:52.249Z,100.00
2022-09-14T20:56:00.441Z,100.00
2022-09-14T20:59:04.728Z,100.00
2022-09-14T21:02:06.826Z,100.00
2022-09-14T21:05:09.062Z,100.00
2022-09-14T21:08:10.766Z,100.00
2022-09-14T21:11:15.937Z,100.00
2022-09-14T21:14:19.771Z,100.00
2022-09-14T21:17:22.185Z,100.00
2022-09-14T21:20:23.925Z,100.00
2022-09-14T21:23:26.269Z,100.00
2022-09-14T21:26:29.630Z,100.00
2022-09-14T21:29:31.881Z,100.00
2022-09-14T21:32:33.553Z,100.00
2022-09-14T21:35:35.364Z,100.00
2022-09-14T21:38:37.961Z,100.00
2022-09-14T21:41:40.987Z,100.00
2022-09-14T21:44:42.650Z,100.00
2022-09-14T21:47:44.526Z,100.00
2022-09-14T21:50:47.531Z,100.00
2022-09-14T21:53:52.024Z,100.00
2022-09-14T21:56:53.877Z,100.00
2022-09-14T21:59:55.842Z,100.00
2022-09-14T22:02:57.557Z,100.00
2022-09-14T22:06:01.684Z,100.00
2022-09-14T22:09:03.414Z,100.00
2022-09-14T22:12:05.328Z,100.00
2022-09-14T22:15:07.414Z,100.00
2022-09-14T22:18:09.231Z,100.00
2022-09-14T22:21:10.986Z,100.00
2022-09-14T22:24:16.117Z,100.00
2022-09-14T22:27:17.768Z,100.00
2022-09-14T22:30:19.441Z,100.00
2022-09-14T22:33:25.368Z,100.00
2022-09-14T22:36:27.470Z,100.00
2022-09-14T22:39:29.736Z,100.00
2022-09-14T22:42:31.613Z,100.00
2022-09-14T22:45:33.352Z,100.00
2022-09-14T22:48:36.973Z,100.00
2022-09-14T22:51:39.146Z,100.00
2022-09-14T22:54:40.976Z,100.00
2022-09-14T22:57:42.665Z,100.00
2022-09-14T23:00:44.925Z,100.00
2022-09-14T23:03:46.593Z,100.00
2022-09-14T23:06:48.934Z,100.00
2022-09-14T23:09:50.597Z,100.00
2022-09-14T23:12:52.324Z,100.00
2022-09-14T23:15:54.041Z,100.00
2022-09-14T23:18:58.297Z,100.00
2022-09-14T23:22:01.165Z,100.00
2022-09-14T23:25:03.223Z,100.00
2022-09-14T23:28:06.566Z,100.00
2022-09-14T23:31:08.410Z,100.00
2022-09-14T23:34:10.094Z,100.00
2022-09-14T23:37:11.757Z,100.00
2022-09-14T23:40:13.868Z,100.00
2022-09-14T23:43:19.487Z,100.00
2022-09-14T23:46:22.141Z,100.00
2022-09-14T23:49:23.995Z,100.00
2022-09-14T23:52:25.726Z,100.00
2022-09-14T23:55:27.784Z,100.00
2022-09-14T23:58:29.582Z,100.00
